createdAt,value
2018-05-17T00:00:21.541Z,34.70
2018-05-17T00:02:47.637Z,35.83
2018-05-17T00:05:14.457Z,33.63
2018-05-17T00:07:40.553Z,34.10
2018-05-17T00:10:06.629Z,34.90
2018-05-17T00:12:33.453Z,34.10
2018-05-17T00:14:59.531Z,35.60
2018-05-17T00:17:25.636Z,34.40
2018-05-17T00:19:51.731Z,34.17
2018-05-17T00:22:17.827Z,35.13
2018-05-17T00:24:43.924Z,36.10
2018-05-17T00:27:10.014Z,36.77
2018-05-17T00:29:36.841Z,36.00
2018-05-17T00:32:02.939Z,36.57
2018-05-17T00:34:29.029Z,36.50
2018-05-17T00:36:55.121Z,38.23
2018-05-17T00:39:21.197Z,37.60
2018-05-17T00:41:47.318Z,38.33
2018-05-17T00:44:14.020Z,38.50
2018-05-17T00:46:40.093Z,39.80
2018-05-17T00:49:06.176Z,43.00
2018-05-17T00:51:32.993Z,41.90
2018-05-17T00:53:59.918Z,41.20
2018-05-17T00:56:26.000Z,41.83
2018-05-17T00:58:52.830Z,42.73
2018-05-17T01:01:19.657Z,42.70
2018-05-17T01:03:45.741Z,41.83
2018-05-17T01:06:11.859Z,42.20
2018-05-17T01:08:37.968Z,41.43
2018-05-17T01:11:04.042Z,41.30
2018-05-17T01:13:30.129Z,43.33
2018-05-17T01:15:56.210Z,41.40
2018-05-17T01:18:22.301Z,42.50
2018-05-17T01:20:48.386Z,41.73
2018-05-17T01:23:15.213Z,43.43
2018-05-17T01:25:41.297Z,43.30
2018-05-17T01:28:07.373Z,44.47
2018-05-17T01:30:34.200Z,42.70
2018-05-17T01:33:00.294Z,43.10
2018-05-17T01:35:26.376Z,44.53
2018-05-17T01:38:11.076Z,43.37
2018-05-17T01:40:37.152Z,44.07
2018-05-17T01:43:03.979Z,45.83
2018-05-17T01:45:30.056Z,45.73
2018-05-17T01:47:56.149Z,45.97
2018-05-17T01:50:22.990Z,45.27
2018-05-17T01:52:49.817Z,45.83
2018-05-17T01:55:15.921Z,44.43
2018-05-17T01:57:42.028Z,43.67
2018-05-17T02:00:08.119Z,43.30
2018-05-17T02:02:34.970Z,45.50
2018-05-17T02:05:01.067Z,44.43
2018-05-17T02:07:27.142Z,43.13
2018-05-17T02:09:53.234Z,45.00
2018-05-17T02:12:20.070Z,47.77
2018-05-17T02:14:46.897Z,45.83
2018-05-17T02:17:12.978Z,47.07
2018-05-17T02:19:39.080Z,46.50
2018-05-17T02:22:05.169Z,48.17
2018-05-17T02:24:31.261Z,50.13
2018-05-17T02:27:04.174Z,47.03
2018-05-17T02:29:30.267Z,49.67
2018-05-17T02:31:56.348Z,50.07
2018-05-17T02:34:23.183Z,52.07
2018-05-17T02:36:49.267Z,49.73
2018-05-17T02:39:15.375Z,48.57
2018-05-17T02:41:41.467Z,49.50
2018-05-17T02:44:08.309Z,50.30
2018-05-17T02:49:49.900Z,50.17
2018-05-17T02:52:21.789Z,50.87
2018-05-17T02:54:48.609Z,51.83
2018-05-17T02:57:15.223Z,51.30
2018-05-17T02:59:41.309Z,50.00
2018-05-17T03:02:07.399Z,51.37
2018-05-17T03:04:33.507Z,51.07
2018-05-17T03:06:59.607Z,52.37
2018-05-17T03:09:25.707Z,52.87
2018-05-17T03:11:58.715Z,52.97
2018-05-17T03:14:24.798Z,53.10
2018-05-17T03:16:50.881Z,56.23
2018-05-17T03:19:16.960Z,55.27
2018-05-17T03:21:43.793Z,57.47
2018-05-17T03:24:10.627Z,56.50
2018-05-17T03:26:36.717Z,56.80
2018-05-17T03:29:02.792Z,57.43
2018-05-17T03:31:29.634Z,59.77
2018-05-17T03:33:56.449Z,57.87
2018-05-17T03:36:23.052Z,58.83
2018-05-17T03:38:49.136Z,61.90
2018-05-17T03:41:15.963Z,63.07
2018-05-17T03:43:42.055Z,60.13
2018-05-17T03:46:08.144Z,60.87
2018-05-17T03:48:34.993Z,63.67
2018-05-17T03:51:01.081Z,62.37
2018-05-17T03:53:27.162Z,63.00
2018-05-17T03:56:00.130Z,60.47
2018-05-17T03:58:26.227Z,61.13
2018-05-17T04:01:11.100Z,64.00
2018-05-17T04:03:55.813Z,62.67
2018-05-17T04:06:37.405Z,60.63
2018-05-17T04:09:04.297Z,61.47
2018-05-17T04:11:31.133Z,59.67
2018-05-17T04:13:58.012Z,61.30
2018-05-17T04:16:24.822Z,61.17
2018-05-17T04:18:51.641Z,58.83
2018-05-17T04:21:17.760Z,58.93
2018-05-17T04:23:43.853Z,59.80
2018-05-17T04:26:09.938Z,59.43
2018-05-17T04:28:36.025Z,59.13
2018-05-17T04:31:02.133Z,58.47
2018-05-17T04:33:28.244Z,55.73
2018-05-17T04:35:54.361Z,58.97
2018-05-17T04:50:25.606Z,53.30
2018-05-17T04:52:51.719Z,52.30
2018-05-17T04:55:18.554Z,53.37
2018-05-17T04:57:45.392Z,52.93
2018-05-17T05:00:12.950Z,52.13
2018-05-17T05:02:39.826Z,52.20
2018-05-17T05:05:05.904Z,51.87
2018-05-17T05:07:31.984Z,53.13
2018-05-17T05:09:58.833Z,52.30
2018-05-17T05:12:24.913Z,52.90
2018-05-17T05:14:51.750Z,51.80
2018-05-17T05:17:18.581Z,50.90
2018-05-17T05:19:44.674Z,52.07
2018-05-17T05:22:10.777Z,53.07
2018-05-17T05:24:36.857Z,51.03
2018-05-17T05:27:02.945Z,49.67
2018-05-17T05:29:29.039Z,51.53
2018-05-17T05:31:55.131Z,52.00
2018-05-17T05:34:21.213Z,49.93
2018-05-17T05:36:47.294Z,49.33
2018-05-17T05:39:13.383Z,47.43
2018-05-17T05:41:39.467Z,48.87
2018-05-17T05:44:06.287Z,50.30
2018-05-17T05:46:32.371Z,47.63
2018-05-17T05:48:58.462Z,45.37
2018-05-17T05:51:24.541Z,45.73
2018-05-17T05:53:50.634Z,47.20
2018-05-17T05:56:16.725Z,45.87
2018-05-17T05:58:43.565Z,40.70
2018-05-17T06:01:11.781Z,40.67
2018-05-17T06:03:37.882Z,41.30
2018-05-17T06:06:03.966Z,37.20
2018-05-17T06:08:30.056Z,38.67
2018-05-17T06:10:56.153Z,38.63
2018-05-17T06:13:22.970Z,39.97
2018-05-17T06:15:49.054Z,39.20
2018-05-17T06:18:15.140Z,34.73
2018-05-17T06:20:41.965Z,37.60
2018-05-17T06:23:08.047Z,35.33
2018-05-17T06:25:34.137Z,34.97
2018-05-17T06:28:00.957Z,36.87
2018-05-17T06:30:27.164Z,36.67
2018-05-17T06:32:53.174Z,35.83
2018-05-17T06:35:19.268Z,36.10
2018-05-17T06:37:45.363Z,34.07
2018-05-17T06:40:11.445Z,37.23
2018-05-17T06:42:37.546Z,34.10
2018-05-17T06:45:03.636Z,34.17
2018-05-17T06:47:29.730Z,33.10
2018-05-17T06:49:55.827Z,32.30
2018-05-17T06:52:21.918Z,31.83
2018-05-17T06:54:48.006Z,31.47
2018-05-17T06:57:14.105Z,31.83
2018-05-17T06:59:40.209Z,31.00
2018-05-17T07:02:07.035Z,28.23
2018-05-17T07:04:33.145Z,28.33
2018-05-17T07:06:59.250Z,27.05
2018-05-17T07:09:25.361Z,26.98
2018-05-17T07:11:51.467Z,27.37
2018-05-17T07:14:17.553Z,27.75
2018-05-17T07:16:43.650Z,27.13
2018-05-17T07:19:09.725Z,26.55
2018-05-17T07:21:35.817Z,27.27
2018-05-17T07:24:01.894Z,25.65
2018-05-17T07:26:27.985Z,26.48
2018-05-17T07:28:54.074Z,24.60
2018-05-17T07:31:20.265Z,27.73
2018-05-17T07:33:46.278Z,26.20
2018-05-17T07:36:14.513Z,26.85
2018-05-17T07:38:40.612Z,26.05
2018-05-17T07:41:06.708Z,23.15
2018-05-17T07:43:33.530Z,25.27
2018-05-17T07:45:59.620Z,25.88
2018-05-17T07:48:25.705Z,26.27
2018-05-17T07:50:52.555Z,24.15
2018-05-17T07:53:19.389Z,25.17
2018-05-17T07:55:46.225Z,24.08
2018-05-17T07:58:13.079Z,23.53
2018-05-17T08:00:39.913Z,25.13
2018-05-17T08:03:06.738Z,23.37
2018-05-17T08:05:32.822Z,23.07
2018-05-17T08:07:58.918Z,22.40
2018-05-17T08:10:25.741Z,21.63
2018-05-17T08:12:51.837Z,22.90
2018-05-17T08:15:17.913Z,21.47
2018-05-17T08:17:44.747Z,20.60
2018-05-17T08:20:11.581Z,21.05
2018-05-17T08:22:37.726Z,19.40
2018-05-17T08:25:03.752Z,18.37
2018-05-17T08:27:29.847Z,17.33
2018-05-17T08:29:55.929Z,16.83
2018-05-17T08:32:22.030Z,16.70
2018-05-17T08:34:48.120Z,16.45
2018-05-17T08:37:14.205Z,15.93
2018-05-17T08:39:40.291Z,15.77
2018-05-17T08:42:07.135Z,14.57
2018-05-17T08:44:33.999Z,14.43
2018-05-17T08:47:00.817Z,14.32
2018-05-17T08:49:27.689Z,13.27
2018-05-17T08:51:53.794Z,13.23
2018-05-17T08:54:20.692Z,13.88
2018-05-17T08:56:46.741Z,13.15
2018-05-17T08:59:12.822Z,12.57
2018-05-17T09:01:38.919Z,12.90
2018-05-17T09:04:05.759Z,12.65
2018-05-17T09:06:32.589Z,12.48
2018-05-17T09:08:58.673Z,12.45
2018-05-17T09:11:24.758Z,11.82
2018-05-17T09:13:50.874Z,11.68
2018-05-17T09:16:17.693Z,12.15
2018-05-17T09:18:43.798Z,11.70
2018-05-17T09:21:09.877Z,11.65
2018-05-17T09:23:37.346Z,11.70
2018-05-17T09:26:03.428Z,10.85
2018-05-17T09:28:29.527Z,11.05
2018-05-17T09:30:55.614Z,10.95
2018-05-17T09:33:21.706Z,12.37
2018-05-17T09:35:47.819Z,10.52
2018-05-17T09:38:13.897Z,11.45
2018-05-17T09:40:39.977Z,11.88
2018-05-17T09:43:06.077Z,11.60
2018-05-17T09:45:32.161Z,11.55
2018-05-17T09:47:58.993Z,12.13
2018-05-17T09:50:25.805Z,12.50
2018-05-17T09:52:51.903Z,11.05
2018-05-17T09:55:17.985Z,11.98
2018-05-17T09:57:44.831Z,11.20
2018-05-17T10:00:17.805Z,11.07
2018-05-17T10:02:43.893Z,12.10
2018-05-17T10:05:09.986Z,12.43
2018-05-17T10:07:36.063Z,11.65
2018-05-17T10:10:02.141Z,10.90
2018-05-17T10:12:28.225Z,11.68
2018-05-17T10:14:54.333Z,12.13
2018-05-17T10:17:20.427Z,11.12
2018-05-17T10:19:46.526Z,11.07
2018-05-17T10:22:13.358Z,11.48
2018-05-17T10:24:39.451Z,12.27
2018-05-17T10:27:05.546Z,12.65
2018-05-17T10:29:31.704Z,12.07
2018-05-17T10:31:58.465Z,12.50
2018-05-17T10:34:24.557Z,11.38
2018-05-17T10:36:50.642Z,12.25
2018-05-17T10:39:17.465Z,12.37
2018-05-17T10:41:43.542Z,11.23
2018-05-17T10:44:09.629Z,12.23
2018-05-17T10:46:37.210Z,11.93
2018-05-17T10:49:03.386Z,12.02
2018-05-17T10:51:30.141Z,11.15
2018-05-17T10:53:56.225Z,12.30
2018-05-17T10:56:22.310Z,12.65
2018-05-17T10:58:49.175Z,12.23
2018-05-17T11:01:15.286Z,12.20
2018-05-17T11:03:42.122Z,12.30
2018-05-17T11:06:08.966Z,11.80
2018-05-17T11:08:35.817Z,11.98
2018-05-17T11:11:02.667Z,11.57
2018-05-17T11:13:28.756Z,12.35
2018-05-17T11:15:54.859Z,11.90
2018-05-17T11:18:20.957Z,12.35
2018-05-17T11:20:47.067Z,12.00
2018-05-17T11:23:13.166Z,12.80
2018-05-17T11:25:39.261Z,12.68
2018-05-17T11:28:05.365Z,12.52
2018-05-17T11:30:31.465Z,12.73
2018-05-17T11:32:58.316Z,12.93
2018-05-17T11:35:24.422Z,13.98
2018-05-17T11:37:51.274Z,13.30
2018-05-17T11:40:18.173Z,13.13
2018-05-17T11:42:44.237Z,13.40
2018-05-17T11:45:11.095Z,13.45
2018-05-17T11:47:37.185Z,13.65
2018-05-17T11:50:03.273Z,13.30
2018-05-17T11:52:29.368Z,13.27
2018-05-17T11:54:56.205Z,13.43
2018-05-17T11:57:23.050Z,13.48
2018-05-17T11:59:49.892Z,13.18
2018-05-17T12:02:16.727Z,12.75
2018-05-17T12:04:43.544Z,13.52
2018-05-17T12:07:09.706Z,13.40
2018-05-17T12:09:35.734Z,12.63
2018-05-17T12:12:02.565Z,12.77
2018-05-17T12:14:29.389Z,12.02
2018-05-17T12:16:55.484Z,12.70
2018-05-17T12:19:21.573Z,12.35
2018-05-17T12:21:47.657Z,12.65
2018-05-17T12:24:13.749Z,12.85
2018-05-17T12:26:39.849Z,13.05
2018-05-17T12:29:06.679Z,13.82
2018-05-17T12:31:33.506Z,13.00
2018-05-17T12:33:59.601Z,12.05
2018-05-17T12:36:25.714Z,12.30
2018-05-17T12:38:51.809Z,11.27
2018-05-17T12:41:17.901Z,13.18
2018-05-17T12:43:43.990Z,12.48
2018-05-17T12:46:10.085Z,12.90
2018-05-17T12:48:36.913Z,12.82
2018-05-17T12:51:03.006Z,12.85
2018-05-17T12:53:29.092Z,12.45
2018-05-17T12:55:55.181Z,12.25
2018-05-17T12:58:21.282Z,13.20
2018-05-17T13:00:47.379Z,12.15
2018-05-17T13:03:13.486Z,12.13
2018-05-17T13:05:39.587Z,11.15
2018-05-17T13:08:05.684Z,12.63
2018-05-17T13:10:31.772Z,11.77
2018-05-17T13:12:58.000Z,12.00
2018-05-17T13:15:24.019Z,11.82
2018-05-17T13:17:50.122Z,12.88
2018-05-17T13:20:16.972Z,11.95
2018-05-17T13:22:43.827Z,12.20
2018-05-17T13:25:09.928Z,12.15
2018-05-17T13:27:36.029Z,12.70
2018-05-17T13:30:02.108Z,11.77
2018-05-17T13:32:28.208Z,11.43
2018-05-17T13:34:55.042Z,11.55
2018-05-17T13:37:21.194Z,11.88
2018-05-17T13:39:47.249Z,12.02
2018-05-17T13:42:13.353Z,11.27
2018-05-17T13:44:39.443Z,11.63
2018-05-17T13:47:05.555Z,10.95
2018-05-17T13:49:32.337Z,11.68
2018-05-17T13:51:58.452Z,11.38
2018-05-17T13:54:25.283Z,11.82
2018-05-17T13:56:51.365Z,11.93
2018-05-17T13:59:17.515Z,12.32
2018-05-17T14:01:43.597Z,12.45
2018-05-17T14:04:09.698Z,14.05
2018-05-17T14:06:36.527Z,12.95
2018-05-17T14:09:02.609Z,12.48
2018-05-17T14:11:28.695Z,12.93
2018-05-17T14:13:55.542Z,13.57
2018-05-17T14:16:22.374Z,13.25
2018-05-17T14:18:49.218Z,12.82
2018-05-17T14:21:16.042Z,12.90
2018-05-17T14:23:42.141Z,12.45
2018-05-17T14:26:08.222Z,13.57
2018-05-17T14:28:34.305Z,12.40
2018-05-17T14:31:00.377Z,12.73
2018-05-17T14:33:27.215Z,13.70
2018-05-17T14:35:54.037Z,13.62
2018-05-17T14:38:20.153Z,13.95
2018-05-17T14:40:46.242Z,13.30
2018-05-17T14:43:12.333Z,12.63
2018-05-17T14:45:39.157Z,13.35
2018-05-17T14:48:05.246Z,12.88
2018-05-17T14:50:31.334Z,13.07
2018-05-17T14:52:58.189Z,11.43
2018-05-17T14:55:24.279Z,12.65
2018-05-17T14:57:50.373Z,12.30
2018-05-17T15:00:16.477Z,12.37
2018-05-17T15:02:42.577Z,12.70
2018-05-17T15:05:08.686Z,11.52
2018-05-17T15:07:34.788Z,12.07
2018-05-17T15:10:00.893Z,12.48
2018-05-17T15:12:26.997Z,11.90
2018-05-17T15:14:53.097Z,12.20
2018-05-17T15:17:19.948Z,11.82
2018-05-17T15:19:46.793Z,12.52
2018-05-17T15:22:13.630Z,11.70
2018-05-17T15:24:39.758Z,11.75
2018-05-17T15:27:06.589Z,12.57
2018-05-17T15:29:33.454Z,12.02
2018-05-17T15:32:00.277Z,11.75
2018-05-17T15:34:27.124Z,12.48
2018-05-17T15:36:53.956Z,11.30
2018-05-17T15:39:20.064Z,11.60
2018-05-17T15:41:46.189Z,10.95
2018-05-17T15:44:12.278Z,11.02
2018-05-17T15:46:38.390Z,11.50
2018-05-17T15:49:04.511Z,10.90
2018-05-17T15:51:31.355Z,11.25
2018-05-17T15:53:57.457Z,12.75
2018-05-17T15:56:23.565Z,11.73
2018-05-17T15:58:49.661Z,12.37
2018-05-17T16:01:15.758Z,12.45
2018-05-17T16:03:42.620Z,12.25
2018-05-17T16:06:09.517Z,12.10
2018-05-17T16:08:35.694Z,12.95
2018-05-17T16:11:01.710Z,12.68
2018-05-17T16:13:27.802Z,13.57
2018-05-17T16:15:54.629Z,13.38
2018-05-17T16:18:20.712Z,12.50
2018-05-17T16:20:46.802Z,13.35
2018-05-17T16:23:12.896Z,14.07
2018-05-17T16:25:39.008Z,13.25
2018-05-17T16:28:05.092Z,14.30
2018-05-17T16:30:31.929Z,14.15
2018-05-17T16:32:58.754Z,13.60
2018-05-17T16:35:24.847Z,13.38
2018-05-17T16:37:50.937Z,12.75
2018-05-17T16:40:17.026Z,14.00
2018-05-17T16:42:43.171Z,15.60
2018-05-17T16:45:09.230Z,14.60
2018-05-17T16:47:35.323Z,15.38
2018-05-17T16:50:02.146Z,16.05
2018-05-17T16:52:28.265Z,15.98
2018-05-17T16:54:54.325Z,16.10
2018-05-17T16:57:21.176Z,16.75
2018-05-17T16:59:47.274Z,15.95
2018-05-17T17:02:13.391Z,16.83
2018-05-17T17:04:41.079Z,16.40
2018-05-17T17:07:07.916Z,16.25
2018-05-17T17:09:36.138Z,16.70
2018-05-17T17:12:02.224Z,16.12
2018-05-17T17:14:28.319Z,16.55
2018-05-17T17:16:54.440Z,16.92
2018-05-17T17:19:20.537Z,16.95
2018-05-17T17:21:46.642Z,16.90
2018-05-17T17:24:12.742Z,16.73
2018-05-17T17:26:39.589Z,17.00
2018-05-17T17:29:06.429Z,16.80
2018-05-17T17:31:33.268Z,17.48
2018-05-17T17:34:00.115Z,16.58
2018-05-17T17:36:27.675Z,16.15
2018-05-17T17:38:54.522Z,16.12
2018-05-17T17:41:21.362Z,15.73
2018-05-17T17:43:48.191Z,16.35
2018-05-17T17:46:14.314Z,15.30
2018-05-17T17:48:40.420Z,14.25
2018-05-17T17:51:06.546Z,13.70
2018-05-17T17:53:32.647Z,14.85
2018-05-17T17:55:58.741Z,13.43
2018-05-17T17:58:25.598Z,13.45
2018-05-17T18:00:52.422Z,13.90
2018-05-17T18:03:19.253Z,13.77
2018-05-17T18:05:45.343Z,14.40
2018-05-17T18:08:11.441Z,13.30
2018-05-17T18:10:37.522Z,13.10
2018-05-17T18:13:03.632Z,14.32
2018-05-17T18:15:29.727Z,13.95
2018-05-17T18:17:57.341Z,13.60
2018-05-17T18:20:23.430Z,14.53
2018-05-17T18:22:49.537Z,14.73
2018-05-17T18:25:15.613Z,14.07
2018-05-17T18:27:43.724Z,15.57
2018-05-17T18:30:09.809Z,14.43
2018-05-17T18:32:35.931Z,14.47
2018-05-17T18:35:01.989Z,14.57
2018-05-17T18:37:28.817Z,14.33
2018-05-17T18:39:55.649Z,14.40
2018-05-17T18:42:21.728Z,14.60
2018-05-17T18:44:47.822Z,14.73
2018-05-17T18:47:14.649Z,14.20
2018-05-17T18:49:40.724Z,14.17
2018-05-17T18:52:06.805Z,14.07
2018-05-17T18:54:33.703Z,14.07
2018-05-17T18:56:59.751Z,13.47
2018-05-17T18:59:25.854Z,13.80
2018-05-17T19:01:51.954Z,13.67
2018-05-17T19:04:18.131Z,14.17
2018-05-17T19:06:44.859Z,13.10
2018-05-17T19:09:10.958Z,12.93
2018-05-17T19:11:37.040Z,12.90
2018-05-17T19:14:03.936Z,12.83
2018-05-17T19:16:30.724Z,13.13
2018-05-17T19:18:57.553Z,13.03
2018-05-17T19:21:23.638Z,13.10
2018-05-17T19:23:49.751Z,12.57
2018-05-17T19:26:15.836Z,12.83
2018-05-17T19:28:41.963Z,12.33
2018-05-17T19:31:08.036Z,13.03
2018-05-17T19:33:34.151Z,13.53
2018-05-17T19:36:00.234Z,13.73
2018-05-17T19:38:26.342Z,14.20
2018-05-17T19:40:53.237Z,12.87
2018-05-17T19:43:19.358Z,13.23
2018-05-17T19:45:46.186Z,12.93
2018-05-17T19:48:13.056Z,12.97
2018-05-17T19:50:39.180Z,12.90
2018-05-17T19:53:05.298Z,13.23
2018-05-17T19:55:31.408Z,12.90
2018-05-17T19:57:57.523Z,13.57
2018-05-17T20:00:23.669Z,14.40
2018-05-17T20:02:50.525Z,13.63
2018-05-17T20:05:17.380Z,14.37
2018-05-17T20:07:43.481Z,13.43
2018-05-17T20:10:10.345Z,13.73
2018-05-17T20:12:36.483Z,13.50
2018-05-17T20:15:02.675Z,14.03
2018-05-17T20:17:29.632Z,13.73
2018-05-17T20:19:56.407Z,13.93
2018-05-17T20:22:22.609Z,13.93
2018-05-17T20:24:48.810Z,13.37
2018-05-17T20:27:14.993Z,13.13
2018-05-17T20:29:41.179Z,13.80
2018-05-17T20:32:08.090Z,15.47
2018-05-17T20:34:34.318Z,13.67
2018-05-17T20:37:02.044Z,14.20
2018-05-17T20:39:28.230Z,13.97
2018-05-17T20:41:55.153Z,14.07
2018-05-17T20:44:21.338Z,12.80
2018-05-17T20:46:47.517Z,12.67
2018-05-17T20:49:14.448Z,13.23
2018-05-17T20:51:40.613Z,13.60
2018-05-17T20:54:06.770Z,13.50
2018-05-17T20:56:32.946Z,13.80
2018-05-17T20:58:59.108Z,12.77
2018-05-17T21:01:25.278Z,14.37
2018-05-17T21:03:51.485Z,13.60
2018-05-17T21:06:17.649Z,13.30
2018-05-17T21:08:43.838Z,14.37
2018-05-17T21:11:10.006Z,13.70
2018-05-17T21:13:36.180Z,13.40
2018-05-17T21:16:02.355Z,14.10
2018-05-17T21:18:28.569Z,13.40
2018-05-17T21:20:54.740Z,13.63
2018-05-17T21:23:21.679Z,13.77
2018-05-17T21:25:47.860Z,14.23
2018-05-17T21:28:14.067Z,14.03
2018-05-17T21:30:40.886Z,13.17
2018-05-17T21:33:07.801Z,14.63
2018-05-17T21:35:34.007Z,15.20
2018-05-17T21:38:00.174Z,13.97
2018-05-17T21:40:26.362Z,14.13
2018-05-17T21:42:52.571Z,15.37
2018-05-17T21:45:18.771Z,14.30
2018-05-17T21:47:45.708Z,15.73
2018-05-17T21:50:12.608Z,14.17
2018-05-17T21:52:38.765Z,14.93
2018-05-17T21:55:04.947Z,14.40
2018-05-17T21:57:31.189Z,14.50
2018-05-17T21:59:57.402Z,15.27
2018-05-17T22:02:23.606Z,14.33
2018-05-17T22:04:50.514Z,14.33
2018-05-17T22:07:16.745Z,15.87
2018-05-17T22:09:42.872Z,15.40
2018-05-17T22:12:09.063Z,15.80
2018-05-17T22:14:35.235Z,15.23
2018-05-17T22:17:01.432Z,15.47
2018-05-17T22:19:27.606Z,16.43
2018-05-17T22:21:53.855Z,15.30
2018-05-17T22:24:20.037Z,17.17
2018-05-17T22:26:46.924Z,16.63
2018-05-17T22:29:13.098Z,16.40
2018-05-17T22:31:39.274Z,16.47
2018-05-17T22:34:06.187Z,16.77
2018-05-17T22:36:33.004Z,17.10
2018-05-17T22:38:59.790Z,17.23
2018-05-17T22:41:26.764Z,17.03
2018-05-17T22:43:52.983Z,16.90
2018-05-17T22:46:19.155Z,17.13
2018-05-17T22:48:45.332Z,16.90
2018-05-17T22:51:12.248Z,17.10
2018-05-17T22:53:38.402Z,16.00
2018-05-17T22:56:05.306Z,16.97
2018-05-17T22:58:32.400Z,16.57
2018-05-17T23:00:59.288Z,16.53
2018-05-17T23:03:25.468Z,14.23
2018-05-17T23:05:51.646Z,13.93
2018-05-17T23:08:17.839Z,12.90
2018-05-17T23:10:44.020Z,13.63
2018-05-17T23:13:11.671Z,14.07
2018-05-17T23:15:37.839Z,13.73
2018-05-17T23:18:04.767Z,12.90
2018-05-17T23:20:30.979Z,13.50
2018-05-17T23:22:57.171Z,13.50
2018-05-17T23:25:23.356Z,13.37
2018-05-17T23:27:50.284Z,12.80
2018-05-17T23:30:17.198Z,13.77
2018-05-17T23:32:43.412Z,12.80
2018-05-17T23:35:09.583Z,12.43
2018-05-17T23:37:35.812Z,13.13
2018-05-17T23:40:20.719Z,13.43
2018-05-17T23:42:46.962Z,13.33
2018-05-17T23:45:13.179Z,12.90
2018-05-17T23:47:39.865Z,13.77
2018-05-17T23:50:06.079Z,14.43
2018-05-17T23:52:32.271Z,14.20
2018-05-17T23:54:59.219Z,13.67
2018-05-17T23:57:25.387Z,14.43
2018-05-17T23:59:51.612Z,13.63
